Time;durP1;ratioP1;P1;durP2;ratioP2;P2;SDS_P1;SDS_P2;PMS_P1;PMS_P2;Temp;Humidity;BMP_temperature;BMP_pressure;BME280_temperature;BME280_humidity;BME280_pressure;Samples;Min_cycle;Max_cycle;Signal;HPM_P1;HPM_P2
2023/01/09 00:01:36;;;;;;;;;;;9.80;99.90;;;;;;5090344;28;19918;-78
2023/01/09 00:04:01;;;;;;;;;;;9.40;99.90;;;;;;5088234;28;19919;-77
2023/01/09 00:06:27;;;;;;;;;;;9.00;99.90;;;;;;5089094;28;19917;-78
2023/01/09 00:08:53;;;;;;;;;;;8.90;99.90;;;;;;5087993;28;19919;-78
2023/01/09 00:11:18;;;;;;;;;;;8.70;99.90;;;;;;5089245;28;20003;-78
2023/01/09 00:13:45;;;;;;;;;;;8.40;99.90;;;;;;5089579;28;20083;-78
2023/01/09 00:16:12;;;;;;;;;;;8.30;99.90;;;;;;5088689;28;20216;-78
2023/01/09 00:18:37;;;;;;;;;;;8.10;99.90;;;;;;5086951;28;19908;-77
2023/01/09 00:21:04;;;;;;;;;;;8.00;99.90;;;;;;5089527;28;19915;-77
2023/01/09 00:23:30;;;;;;;;;;;7.80;99.90;;;;;;5090480;28;19908;-78
2023/01/09 00:26:06;;;;;;;;;;;7.80;99.90;;;;;;5093002;28;19920;-78
2023/01/09 00:28:32;;;;;;;;;;;7.90;99.90;;;;;;5092042;28;19912;-79
2023/01/09 00:30:58;;;;;;;;;;;7.90;99.90;;;;;;5089845;28;19999;-77
2023/01/09 00:33:34;;;;;;;;;;;8.20;99.90;;;;;;5087676;28;20106;-78
2023/01/09 00:36:00;;;;;;;;;;;8.00;99.90;;;;;;5090788;28;19930;-77
2023/01/09 00:38:28;;;;;;;;;;;8.10;99.90;;;;;;5088282;28;20100;-79
2023/01/09 00:40:54;;;;;;;;;;;8.70;99.90;;;;;;5084500;28;19908;-77
2023/01/09 00:43:27;;;;;;;;;;;8.20;99.90;;;;;;5086191;28;19912;-77
2023/01/09 00:45:56;;;;;;;;;;;8.20;99.90;;;;;;5087390;28;19920;-77
2023/01/09 00:48:26;;;;;;;;;;;7.10;99.90;;;;;;5088915;28;19916;-76
2023/01/09 00:50:54;;;;;;;;;;;8.40;99.90;;;;;;5089198;28;19975;-78
2023/01/09 00:53:22;;;;;;;;;;;8.60;99.90;;;;;;5089310;28;19918;-78
2023/01/09 00:55:48;;;;;;;;;;;9.00;99.90;;;;;;5088425;28;19904;-77
2023/01/09 00:58:14;;;;;;;;;;;9.30;99.90;;;;;;5092285;28;19908;-78
2023/01/09 01:00:39;;;;;;;;;;;9.90;99.90;;;;;;5091319;28;19919;-78
2023/01/09 01:03:05;;;;;;;;;;;10.10;99.90;;;;;;5076828;28;19913;-78
2023/01/09 01:08:16;;;;;;;;;;;10.50;99.90;;;;;;5096585;28;19919;-77
2023/01/09 01:10:43;;;;;;;;;;;10.80;99.90;;;;;;5097310;28;19946;-78
2023/01/09 01:13:08;;;;;;;;;;;10.90;99.90;;;;;;5097242;28;19908;-78
2023/01/09 01:15:36;;;;;;;;;;;11.00;99.90;;;;;;5096192;28;19908;-78
2023/01/09 01:18:02;;;;;;;;;;;11.00;99.90;;;;;;5098238;28;19908;-79
2023/01/09 01:20:28;;;;;;;;;;;11.20;99.90;;;;;;5093579;28;19935;-80
2023/01/09 01:22:53;;;;;;;;;;;11.30;99.90;;;;;;5091764;28;20333;-79
2023/01/09 01:25:19;;;;;;;;;;;11.40;99.90;;;;;;5088581;28;19917;-80
2023/01/09 01:27:57;;;;;;;;;;;11.40;99.90;;;;;;5085302;28;19912;-78
2023/01/09 01:30:23;;;;;;;;;;;11.80;99.90;;;;;;5088851;28;19951;-79
2023/01/09 01:32:48;;;;;;;;;;;11.30;99.90;;;;;;5089037;28;20014;-77
2023/01/09 01:35:14;;;;;;;;;;;11.40;99.90;;;;;;5088576;28;20278;-78
2023/01/09 01:37:40;;;;;;;;;;;11.50;99.90;;;;;;5073923;28;20216;-79
2023/01/09 01:40:06;;;;;;;;;;;11.60;99.90;;;;;;5091572;28;19908;-79
2023/01/09 01:42:32;;;;;;;;;;;11.70;99.90;;;;;;5093530;28;19912;-79
2023/01/09 01:45:05;;;;;;;;;;;11.60;99.90;;;;;;5093213;28;19909;-79
2023/01/09 01:47:40;;;;;;;;;;;11.60;99.90;;;;;;5095933;28;19927;-78
2023/01/09 01:50:10;;;;;;;;;;;11.50;99.90;;;;;;5094960;28;19908;-78
2023/01/09 01:52:36;;;;;;;;;;;11.60;99.90;;;;;;5095271;28;19931;-76
2023/01/09 01:55:03;;;;;;;;;;;11.60;99.90;;;;;;5097025;28;20007;-79
2023/01/09 01:57:29;;;;;;;;;;;11.50;99.90;;;;;;5094477;28;19923;-77
2023/01/09 01:59:58;;;;;;;;;;;11.60;99.90;;;;;;5093707;28;19912;-78
2023/01/09 02:02:25;;;;;;;;;;;11.60;99.90;;;;;;5089908;28;19908;-78
2023/01/09 02:04:52;;;;;;;;;;;11.60;99.90;;;;;;5086257;28;19908;-78
2023/01/09 02:07:19;;;;;;;;;;;11.60;99.90;;;;;;5088360;28;19916;-78
2023/01/09 02:09:45;;;;;;;;;;;11.70;99.90;;;;;;5089363;28;19908;-78
2023/01/09 02:12:15;;;;;;;;;;;11.60;99.90;;;;;;5088339;28;19914;-77
2023/01/09 02:14:41;;;;;;;;;;;11.60;99.90;;;;;;5092629;28;19908;-79
2023/01/09 02:17:22;;;;;;;;;;;11.40;99.90;;;;;;5088680;28;19908;-78
2023/01/09 02:20:06;;;;;;;;;;;11.40;99.90;;;;;;5090333;28;19908;-78
2023/01/09 02:22:36;;;;;;;;;;;11.60;99.90;;;;;;5093824;28;19912;-78
2023/01/09 02:25:08;;;;;;;;;;;11.60;99.90;;;;;;5094295;28;19924;-77
2023/01/09 02:27:56;;;;;;;;;;;11.70;99.90;;;;;;5092932;28;20422;-77
2023/01/09 02:30:39;;;;;;;;;;;11.60;99.90;;;;;;5091962;28;19938;-77
2023/01/09 02:33:16;;;;;;;;;;;11.60;99.90;;;;;;5094230;28;19944;-79
2023/01/09 02:35:41;;;;;;;;;;;11.50;99.90;;;;;;5094887;28;20115;-78
2023/01/09 02:38:07;;;;;;;;;;;11.60;99.90;;;;;;5094653;28;20446;-79
2023/01/09 02:40:38;;;;;;;;;;;11.60;99.90;;;;;;5090323;28;20295;-77
2023/01/09 02:43:04;;;;;;;;;;;11.60;99.90;;;;;;5091212;28;19919;-78
2023/01/09 02:45:30;;;;;;;;;;;11.60;99.90;;;;;;5091721;28;20238;-77
2023/01/09 02:47:55;;;;;;;;;;;11.50;99.90;;;;;;5089061;28;19955;-76
2023/01/09 02:50:23;;;;;;;;;;;9.80;99.90;;;;;;5090711;28;19912;-77
2023/01/09 02:52:57;;;;;;;;;;;11.70;99.90;;;;;;5089673;28;19908;-78
2023/01/09 02:55:41;;;;;;;;;;;12.00;99.90;;;;;;5090326;28;20013;-77
2023/01/09 02:58:26;;;;;;;;;;;11.70;99.90;;;;;;5091275;28;19908;-78
2023/01/09 03:01:00;;;;;;;;;;;11.70;99.90;;;;;;5090902;28;20114;-77
2023/01/09 03:03:52;;;;;;;;;;;11.60;99.90;;;;;;5091935;28;19912;-78
2023/01/09 03:06:21;;;;;;;;;;;11.70;99.90;;;;;;5087551;28;19954;-77
2023/01/09 03:09:06;;;;;;;;;;;11.90;99.90;;;;;;5093298;28;19916;-76
2023/01/09 03:11:38;;;;;;;;;;;12.30;99.90;;;;;;5090659;28;19912;-78
2023/01/09 03:14:05;;;;;;;;;;;12.00;99.90;;;;;;5090891;28;19938;-77
2023/01/09 03:16:34;;;;;;;;;;;12.00;99.90;;;;;;5089486;28;19951;-80
2023/01/09 03:19:00;;;;;;;;;;;12.00;99.90;;;;;;5089315;28;19908;-78
2023/01/09 03:21:28;;;;;;;;;;;12.00;99.90;;;;;;5090414;28;19916;-78
2023/01/09 03:23:55;;;;;;;;;;;12.00;99.90;;;;;;5090296;28;19908;-78
2023/01/09 03:26:21;;;;;;;;;;;11.90;99.90;;;;;;5092195;28;19920;-77
2023/01/09 03:28:47;;;;;;;;;;;11.90;99.90;;;;;;5090990;28;19914;-78
2023/01/09 03:31:16;;;;;;;;;;;11.90;99.90;;;;;;5095680;28;20340;-78
2023/01/09 03:33:42;;;;;;;;;;;11.80;99.90;;;;;;5097113;28;19987;-78
2023/01/09 03:36:09;;;;;;;;;;;11.90;99.90;;;;;;5092453;28;19967;-78
2023/01/09 03:38:34;;;;;;;;;;;11.90;99.90;;;;;;5093321;28;19936;-77
2023/01/09 03:41:00;;;;;;;;;;;11.90;99.90;;;;;;5094619;28;19915;-77
2023/01/09 03:43:26;;;;;;;;;;;11.90;99.90;;;;;;5091692;28;19908;-78
2023/01/09 03:45:51;;;;;;;;;;;12.00;99.90;;;;;;5095061;28;19938;-78
2023/01/09 03:48:17;;;;;;;;;;;12.00;99.90;;;;;;5092329;28;19912;-78
2023/01/09 03:50:44;;;;;;;;;;;11.90;99.90;;;;;;5090672;28;19915;-79
2023/01/09 03:53:11;;;;;;;;;;;11.90;99.90;;;;;;5089222;28;19908;-78
2023/01/09 03:55:38;;;;;;;;;;;11.90;99.90;;;;;;5090685;28;19908;-78
2023/01/09 03:58:03;;;;;;;;;;;12.00;99.90;;;;;;5092492;28;19912;-79
2023/01/09 04:00:29;;;;;;;;;;;12.00;99.90;;;;;;5094923;28;19908;-78
2023/01/09 04:02:55;;;;;;;;;;;12.00;99.90;;;;;;5096132;28;19912;-78
2023/01/09 04:05:21;;;;;;;;;;;12.00;99.90;;;;;;5094418;28;19913;-78
2023/01/09 04:07:47;;;;;;;;;;;12.10;99.90;;;;;;5097029;28;19920;-78
2023/01/09 04:10:13;;;;;;;;;;;12.10;99.90;;;;;;5095815;28;19938;-79
2023/01/09 04:12:38;;;;;;;;;;;12.10;99.90;;;;;;5095704;28;19915;-79
2023/01/09 04:15:07;;;;;;;;;;;12.20;99.90;;;;;;5095693;28;19912;-78
2023/01/09 04:17:33;;;;;;;;;;;12.20;99.90;;;;;;5098522;28;19908;-78
2023/01/09 04:19:58;;;;;;;;;;;12.10;99.90;;;;;;5097132;28;19992;-77
2023/01/09 04:22:24;;;;;;;;;;;12.10;99.90;;;;;;5095940;28;19979;-77
2023/01/09 04:24:55;;;;;;;;;;;12.20;99.90;;;;;;5095140;28;20111;-77
2023/01/09 04:27:21;;;;;;;;;;;12.10;99.90;;;;;;5095828;28;19920;-78
2023/01/09 04:29:47;;;;;;;;;;;12.10;99.90;;;;;;5093337;28;19919;-78
2023/01/09 04:32:12;;;;;;;;;;;12.10;99.90;;;;;;5095038;28;20028;-78
2023/01/09 04:34:41;;;;;;;;;;;12.10;99.90;;;;;;5094872;28;20127;-78
2023/01/09 04:37:07;;;;;;;;;;;13.80;99.90;;;;;;5114947;28;19908;-79
2023/01/09 04:39:36;;;;;;;;;;;11.90;99.90;;;;;;5115317;28;20025;-77
2023/01/09 04:42:02;;;;;;;;;;;12.00;99.90;;;;;;5115361;28;19911;-76
2023/01/09 04:44:28;;;;;;;;;;;11.80;99.90;;;;;;5116546;28;19940;-78
2023/01/09 04:46:57;;;;;;;;;;;11.80;99.90;;;;;;5115146;28;19920;-78
2023/01/09 04:49:23;;;;;;;;;;;11.80;99.90;;;;;;5099491;28;20032;-78
2023/01/09 04:51:49;;;;;;;;;;;11.70;99.90;;;;;;5100291;28;19907;-78
2023/01/09 04:54:15;;;;;;;;;;;11.60;99.90;;;;;;5118592;28;19912;-77
2023/01/09 04:56:40;;;;;;;;;;;11.60;99.90;;;;;;5101071;28;20196;-78
2023/01/09 04:59:06;;;;;;;;;;;11.60;99.90;;;;;;5101094;28;20104;-77
2023/01/09 05:01:32;;;;;;;;;;;11.60;99.90;;;;;;5118996;28;20218;-77
2023/01/09 05:03:58;;;;;;;;;;;11.60;99.90;;;;;;5103643;28;19908;-78
2023/01/09 05:06:24;;;;;;;;;;;11.60;99.90;;;;;;5103593;28;19923;-78
2023/01/09 05:08:49;;;;;;;;;;;11.50;99.90;;;;;;5102680;28;19961;-78
2023/01/09 05:11:15;;;;;;;;;;;11.60;99.90;;;;;;5101754;28;19907;-79
2023/01/09 05:13:40;;;;;;;;;;;13.40;99.90;;;;;;5101521;28;20434;-78
2023/01/09 05:16:06;;;;;;;;;;;11.60;99.90;;;;;;5100962;28;20423;-78
2023/01/09 05:18:32;;;;;;;;;;;11.70;99.90;;;;;;5101769;28;19935;-78
2023/01/09 05:20:58;;;;;;;;;;;13.90;99.90;;;;;;5100509;28;20181;-78
2023/01/09 05:23:23;;;;;;;;;;;11.60;99.90;;;;;;5102828;28;19908;-78
2023/01/09 05:25:51;;;;;;;;;;;11.60;99.90;;;;;;5119338;28;19920;-78
2023/01/09 05:28:17;;;;;;;;;;;11.60;99.90;;;;;;5119938;28;20103;-78
2023/01/09 05:30:43;;;;;;;;;;;11.50;99.90;;;;;;5118132;28;19914;-78
2023/01/09 05:33:08;;;;;;;;;;;11.50;99.90;;;;;;5111965;28;19908;-80
2023/01/09 05:35:37;;;;;;;;;;;11.50;99.90;;;;;;5112454;28;19949;-79
2023/01/09 05:38:02;;;;;;;;;;;11.50;99.90;;;;;;5112539;28;19915;-78
2023/01/09 05:40:28;;;;;;;;;;;11.50;99.90;;;;;;5111808;28;19912;-78
2023/01/09 05:42:54;;;;;;;;;;;11.60;99.90;;;;;;5114071;28;20512;-77
2023/01/09 05:45:19;;;;;;;;;;;11.60;99.90;;;;;;5110245;28;19907;-78
2023/01/09 05:47:45;;;;;;;;;;;11.60;99.90;;;;;;5113729;28;19938;-77
2023/01/09 05:50:12;;;;;;;;;;;11.70;99.90;;;;;;5114599;28;19995;-78
2023/01/09 05:52:38;;;;;;;;;;;11.70;99.90;;;;;;5116739;28;20018;-78
2023/01/09 05:55:04;;;;;;;;;;;11.70;99.90;;;;;;5098567;28;20578;-77
2023/01/09 05:57:30;;;;;;;;;;;11.70;99.90;;;;;;5095403;28;19908;-78
2023/01/09 05:59:55;;;;;;;;;;;11.70;99.90;;;;;;5096545;28;19907;-77
2023/01/09 06:02:21;;;;;;;;;;;11.80;99.90;;;;;;5117775;28;19908;-78
2023/01/09 06:04:47;;;;;;;;;;;11.90;99.90;;;;;;5117995;28;20374;-79
2023/01/09 06:07:12;;;;;;;;;;;11.90;99.90;;;;;;5098546;28;19915;-76
2023/01/09 06:09:38;;;;;;;;;;;11.20;99.90;;;;;;5097534;28;20053;-78
2023/01/09 06:12:04;;;;;;;;;;;11.90;99.90;;;;;;5096759;28;19908;-77
2023/01/09 06:14:29;;;;;;;;;;;11.90;99.90;;;;;;5112862;28;19907;-80
2023/01/09 06:16:55;;;;;;;;;;;12.00;99.90;;;;;;5112144;28;19908;-78
2023/01/09 06:19:20;;;;;;;;;;;10.40;99.90;;;;;;5111283;28;19908;-79
2023/01/09 06:21:46;;;;;;;;;;;11.90;99.90;;;;;;5114990;28;20002;-77
2023/01/09 06:24:14;;;;;;;;;;;12.00;99.90;;;;;;5117302;28;19997;-77
2023/01/09 06:26:42;;;;;;;;;;;11.90;99.90;;;;;;5117194;28;19998;-78
2023/01/09 06:29:08;;;;;;;;;;;11.90;99.90;;;;;;5120399;28;19929;-77
2023/01/09 06:31:34;;;;;;;;;;;11.90;99.90;;;;;;5117684;28;19908;-78
2023/01/09 06:34:00;;;;;;;;;;;11.90;99.90;;;;;;5118021;28;19975;-78
2023/01/09 06:36:26;;;;;;;;;;;11.80;99.90;;;;;;5122672;28;19976;-78
2023/01/09 06:38:51;;;;;;;;;;;11.80;99.90;;;;;;5118264;28;19918;-78
2023/01/09 06:41:17;;;;;;;;;;;11.70;99.90;;;;;;5098594;28;20121;-78
2023/01/09 06:43:42;;;;;;;;;;;11.70;99.90;;;;;;5117055;28;19931;-79
2023/01/09 06:46:08;;;;;;;;;;;11.70;99.90;;;;;;5118308;28;19915;-78
2023/01/09 06:48:34;;;;;;;;;;;11.70;99.90;;;;;;5102345;28;19922;-78
2023/01/09 06:51:00;;;;;;;;;;;11.70;99.90;;;;;;5100387;28;19973;-78
2023/01/09 06:53:26;;;;;;;;;;;11.70;99.90;;;;;;5100290;28;19983;-77
2023/01/09 06:55:51;;;;;;;;;;;11.70;99.90;;;;;;5116720;28;19911;-78
2023/01/09 06:58:17;;;;;;;;;;;11.70;99.90;;;;;;5098180;28;19908;-77
2023/01/09 07:00:43;;;;;;;;;;;11.70;99.90;;;;;;5097830;28;19908;-80
2023/01/09 07:03:10;;;;;;;;;;;11.60;99.90;;;;;;5116216;28;20196;-78
2023/01/09 07:05:41;;;;;;;;;;;11.70;99.90;;;;;;5099138;28;19912;-78
2023/01/09 07:08:06;;;;;;;;;;;11.60;99.90;;;;;;5113957;28;20011;-78
2023/01/09 07:10:32;;;;;;;;;;;11.70;99.90;;;;;;5114963;28;19951;-78
2023/01/09 07:12:58;;;;;;;;;;;11.70;99.90;;;;;;5094282;28;19912;-78
2023/01/09 07:15:26;;;;;;;;;;;11.70;99.90;;;;;;5114957;28;19908;-77
2023/01/09 07:17:52;;;;;;;;;;;11.70;99.90;;;;;;5095528;28;19955;-79
2023/01/09 07:20:18;;;;;;;;;;;11.60;99.90;;;;;;5098220;28;19908;-76
2023/01/09 07:22:44;;;;;;;;;;;11.60;99.90;;;;;;5096453;28;20370;-77
2023/01/09 07:25:10;;;;;;;;;;;11.60;99.90;;;;;;5097742;28;19907;-77
2023/01/09 07:27:35;;;;;;;;;;;11.60;99.90;;;;;;5098785;28;19920;-78
2023/01/09 07:30:01;;;;;;;;;;;11.60;99.90;;;;;;5114239;28;20287;-78
2023/01/09 07:32:27;;;;;;;;;;;11.50;99.90;;;;;;5116906;28;19962;-78
2023/01/09 07:34:52;;;;;;;;;;;11.50;99.90;;;;;;5099797;28;19951;-77
2023/01/09 07:37:18;;;;;;;;;;;11.60;99.90;;;;;;5098904;28;19931;-77
2023/01/09 07:39:45;;;;;;;;;;;11.60;99.90;;;;;;5097255;28;19907;-78
2023/01/09 07:42:11;;;;;;;;;;;11.60;99.90;;;;;;5116960;28;19908;-78
2023/01/09 07:44:36;;;;;;;;;;;11.60;99.90;;;;;;5116105;28;19914;-77
2023/01/09 07:47:02;;;;;;;;;;;11.60;99.90;;;;;;5097855;28;19919;-77
2023/01/09 07:49:29;;;;;;;;;;;11.60;99.90;;;;;;5096996;28;19908;-78
2023/01/09 07:51:55;;;;;;;;;;;11.60;99.90;;;;;;5120969;28;20149;-78
2023/01/09 07:54:21;;;;;;;;;;;11.60;99.90;;;;;;5120152;28;19908;-79
2023/01/09 07:56:46;;;;;;;;;;;11.50;99.90;;;;;;5122535;28;19907;-78
2023/01/09 07:59:12;;;;;;;;;;;11.60;99.90;;;;;;5101962;28;19919;-78
2023/01/09 08:01:38;;;;;;;;;;;11.60;99.90;;;;;;5120721;28;19934;-76
2023/01/09 08:04:03;;;;;;;;;;;11.60;99.90;;;;;;5100799;28;20125;-79
2023/01/09 08:06:30;;;;;;;;;;;11.50;99.90;;;;;;5118680;28;19926;-78
2023/01/09 08:08:56;;;;;;;;;;;11.50;99.90;;;;;;5120167;28;19970;-77
2023/01/09 08:11:22;;;;;;;;;;;11.50;99.90;;;;;;5098863;28;20299;-77
2023/01/09 08:13:48;;;;;;;;;;;11.50;99.90;;;;;;5118311;28;19919;-77
2023/01/09 08:16:14;;;;;;;;;;;11.50;99.90;;;;;;5119878;28;19907;-78
2023/01/09 08:18:39;;;;;;;;;;;11.50;99.90;;;;;;5120208;28;19950;-78
2023/01/09 08:21:09;;;;;;;;;;;11.60;99.90;;;;;;5119616;28;19908;-78
2023/01/09 08:23:35;;;;;;;;;;;11.50;99.90;;;;;;5121132;28;19908;-80
2023/01/09 08:26:01;;;;;;;;;;;11.60;99.90;;;;;;5103544;28;19927;-78
2023/01/09 08:28:27;;;;;;;;;;;11.60;99.90;;;;;;5123195;28;19895;-77
2023/01/09 08:30:53;;;;;;;;;;;11.60;99.90;;;;;;5120702;28;19914;-80
2023/01/09 08:33:19;;;;;;;;;;;11.60;99.90;;;;;;5120388;28;20002;-78
2023/01/09 08:35:44;;;;;;;;;;;11.60;99.90;;;;;;5115864;28;20204;-77
2023/01/09 08:38:11;;;;;;;;;;;11.60;99.90;;;;;;5117612;28;19908;-78
2023/01/09 08:40:38;;;;;;;;;;;11.60;99.90;;;;;;5093947;28;19908;-78
2023/01/09 08:48:33;;;;;;;;;;;11.70;99.90;;;;;;5115063;28;19974;-78
2023/01/09 08:50:58;;;;;;;;;;;11.80;99.90;;;;;;5117858;28;19999;-78
2023/01/09 08:53:24;;;;;;;;;;;11.80;99.90;;;;;;5117486;28;20362;-79
2023/01/09 08:55:50;;;;;;;;;;;11.90;99.90;;;;;;5099154;28;19908;-78
2023/01/09 08:58:15;;;;;;;;;;;11.90;99.90;;;;;;5100474;28;19915;-79
2023/01/09 09:00:41;;;;;;;;;;;11.80;99.90;;;;;;5119463;28;19908;-78
2023/01/09 09:03:08;;;;;;;;;;;11.80;99.90;;;;;;5098048;28;19908;-77
2023/01/09 09:05:33;;;;;;;;;;;11.90;99.90;;;;;;5102162;28;19920;-79
2023/01/09 09:07:59;;;;;;;;;;;11.90;99.90;;;;;;5121635;28;19941;-77
2023/01/09 09:10:26;;;;;;;;;;;11.90;99.90;;;;;;5116151;28;20456;-80
2023/01/09 09:12:52;;;;;;;;;;;11.90;99.90;;;;;;5111040;28;19908;-79
2023/01/09 09:15:25;;;;;;;;;;;11.90;99.90;;;;;;5111784;28;20221;-78
2023/01/09 09:17:59;;;;;;;;;;;11.90;99.90;;;;;;5115472;28;19912;-78
2023/01/09 09:20:31;;;;;;;;;;;12.00;99.90;;;;;;5118823;28;19983;-78
2023/01/09 09:22:57;;;;;;;;;;;11.90;99.90;;;;;;5114087;28;19908;-77
2023/01/09 09:25:24;;;;;;;;;;;12.00;99.90;;;;;;5115176;28;19915;-78
2023/01/09 09:27:50;;;;;;;;;;;12.00;99.90;;;;;;5110281;28;20447;-80
2023/01/09 09:30:17;;;;;;;;;;;12.10;99.90;;;;;;5107240;28;19908;-77
2023/01/09 09:32:43;;;;;;;;;;;12.10;99.90;;;;;;5102854;28;19911;-77
2023/01/09 09:35:09;;;;;;;;;;;12.10;99.90;;;;;;5104287;28;19916;-78
2023/01/09 09:37:34;;;;;;;;;;;12.20;99.90;;;;;;5103682;28;20401;-81
2023/01/09 09:40:00;;;;;;;;;;;12.20;99.90;;;;;;5104043;28;19966;-86
2023/01/09 09:45:39;;;;;;;;;;;12.40;99.90;;;;;;5105696;28;20596;-82
2023/01/09 09:48:08;;;;;;;;;;;12.50;99.90;;;;;;5104866;28;19919;-77
2023/01/09 09:51:00;;;;;;;;;;;12.50;99.90;;;;;;5105769;28;20507;-77
2023/01/09 09:53:29;;;;;;;;;;;12.50;99.90;;;;;;5045189;28;20516;-81
2023/01/09 09:55:56;;;;;;;;;;;12.60;99.90;;;;;;5084073;28;19907;-79
2023/01/09 09:58:22;;;;;;;;;;;12.50;99.90;;;;;;5103001;28;19976;-83
2023/01/09 10:00:51;;;;;;;;;;;12.50;99.90;;;;;;5102026;28;19998;-84
2023/01/09 10:03:26;;;;;;;;;;;12.60;99.90;;;;;;5102073;28;19943;-79
2023/01/09 10:05:53;;;;;;;;;;;12.60;99.90;;;;;;5101137;28;20413;-87
2023/01/09 10:08:30;;;;;;;;;;;12.70;99.90;;;;;;5100785;28;19912;-78
2023/01/09 10:10:56;;;;;;;;;;;11.90;99.90;;;;;;5083595;28;19999;-82
2023/01/09 10:16:21;;;;;;;;;;;12.70;99.90;;;;;;5104097;28;19918;-81
2023/01/09 10:18:46;;;;;;;;;;;12.90;99.90;;;;;;5100681;28;20626;-80
2023/01/09 10:21:12;;;;;;;;;;;13.00;99.90;;;;;;5081785;28;19919;-79
2023/01/09 10:23:44;;;;;;;;;;;13.00;99.90;;;;;;5099721;28;20627;-80
2023/01/09 10:26:28;;;;;;;;;;;13.00;99.90;;;;;;5099859;28;19916;-86
2023/01/09 10:28:54;;;;;;;;;;;13.00;99.90;;;;;;5099801;28;19912;-81
2023/01/09 10:31:38;;;;;;;;;;;13.10;99.90;;;;;;5099151;28;19937;-83
2023/01/09 10:34:19;;;;;;;;;;;13.10;99.90;;;;;;5100749;28;19915;-78
2023/01/09 10:36:44;;;;;;;;;;;13.10;99.90;;;;;;5084769;28;19916;-87
2023/01/09 10:39:14;;;;;;;;;;;13.10;99.90;;;;;;5085452;28;20014;-78
2023/01/09 10:41:49;;;;;;;;;;;13.20;99.90;;;;;;5102458;28;20143;-81
2023/01/09 10:44:19;;;;;;;;;;;13.20;99.90;;;;;;5102615;28;19941;-82
2023/01/09 10:46:52;;;;;;;;;;;13.30;99.90;;;;;;5102514;28;19926;-82
2023/01/09 10:49:23;;;;;;;;;;;13.30;99.90;;;;;;5109083;28;19947;-78
2023/01/09 10:52:10;;;;;;;;;;;13.30;99.90;;;;;;5114261;28;19937;-78
2023/01/09 10:54:39;;;;;;;;;;;13.20;99.90;;;;;;5119308;28;19907;-78
2023/01/09 10:57:09;;;;;;;;;;;13.10;99.90;;;;;;5117082;28;20550;-77
2023/01/09 10:59:35;;;;;;;;;;;12.90;99.90;;;;;;5115408;28;19969;-79
2023/01/09 11:02:01;;;;;;;;;;;12.90;99.90;;;;;;5104088;28;20571;-83
2023/01/09 11:04:31;;;;;;;;;;;12.90;99.90;;;;;;5102848;28;19903;-78
2023/01/09 11:07:02;;;;;;;;;;;12.80;99.90;;;;;;5085272;28;19923;-83
2023/01/09 11:09:27;;;;;;;;;;;12.80;99.90;;;;;;5086138;28;19908;-81
2023/01/09 11:11:53;;;;;;;;;;;12.80;99.90;;;;;;5109731;28;20003;-78
2023/01/09 11:14:19;;;;;;;;;;;12.80;99.90;;;;;;5092643;28;19908;-84
2023/01/09 11:16:55;;;;;;;;;;;12.70;99.90;;;;;;5090798;28;19927;-80
2023/01/09 11:19:22;;;;;;;;;;;12.70;99.90;;;;;;5087592;28;19907;-80
2023/01/09 11:21:48;;;;;;;;;;;12.80;99.90;;;;;;5107559;28;20692;-83
2023/01/09 11:24:28;;;;;;;;;;;12.80;99.90;;;;;;5104775;28;19951;-78
2023/01/09 11:27:13;;;;;;;;;;;12.90;99.90;;;;;;5103153;28;19919;-80
2023/01/09 11:29:40;;;;;;;;;;;13.00;99.90;;;;;;5103029;28;19915;-78
2023/01/09 11:32:18;;;;;;;;;;;13.00;99.90;;;;;;5084759;28;19908;-79
2023/01/09 11:34:44;;;;;;;;;;;13.10;99.90;;;;;;5104082;28;20049;-82
2023/01/09 11:37:12;;;;;;;;;;;13.20;99.90;;;;;;5104552;28;19923;-80
2023/01/09 11:39:40;;;;;;;;;;;13.20;99.90;;;;;;5114447;28;20202;-78
2023/01/09 11:42:08;;;;;;;;;;;13.20;99.90;;;;;;5088207;28;19915;-79
2023/01/09 11:44:34;;;;;;;;;;;13.20;99.90;;;;;;5086892;28;19947;-80
2023/01/09 11:46:59;;;;;;;;;;;13.20;99.90;;;;;;5097329;28;19918;-78
2023/01/09 11:49:28;;;;;;;;;;;13.20;99.90;;;;;;5100306;28;19907;-79
2023/01/09 11:52:12;;;;;;;;;;;13.20;99.90;;;;;;5090657;28;19915;-79
2023/01/09 11:54:40;;;;;;;;;;;13.10;99.90;;;;;;5110538;28;20462;-86
2023/01/09 11:57:09;;;;;;;;;;;13.10;99.90;;;;;;5109282;28;19904;-78
2023/01/09 11:59:35;;;;;;;;;;;13.00;99.90;;;;;;5095759;28;19914;-78
2023/01/09 12:02:19;;;;;;;;;;;13.00;99.90;;;;;;5118218;28;20006;-77
2023/01/09 12:04:48;;;;;;;;;;;12.80;99.90;;;;;;5099280;28;19977;-78
2023/01/09 12:07:16;;;;;;;;;;;12.80;99.90;;;;;;5086309;28;19955;-78
2023/01/09 12:10:01;;;;;;;;;;;12.80;99.90;;;;;;5103506;28;19908;-79
2023/01/09 12:12:51;;;;;;;;;;;12.80;99.90;;;;;;5085183;28;20001;-79
2023/01/09 12:15:29;;;;;;;;;;;12.80;99.90;;;;;;5102027;28;19907;-82
2023/01/09 12:18:03;;;;;;;;;;;13.00;99.90;;;;;;5084856;28;19991;-79
2023/01/09 12:20:47;;;;;;;;;;;12.90;99.90;;;;;;5103013;28;19916;-80
2023/01/09 12:23:27;;;;;;;;;;;12.90;99.90;;;;;;5083665;28;19907;-86
2023/01/09 12:26:02;;;;;;;;;;;12.80;99.90;;;;;;5102291;28;20477;-80
2023/01/09 12:28:27;;;;;;;;;;;12.90;99.90;;;;;;5105102;28;20007;-87
2023/01/09 12:31:29;;;;;;;;;;;12.60;99.90;;;;;;5091153;28;19946;-82
2023/01/09 12:33:54;;;;;;;;;;;12.60;99.90;;;;;;5001715;28;19910;-78
2023/01/09 12:36:30;;;;;;;;;;;12.90;99.90;;;;;;4984715;28;20021;-84
2023/01/09 12:39:04;;;;;;;;;;;12.50;99.90;;;;;;4987664;28;19909;-80
2023/01/09 12:41:41;;;;;;;;;;;11.00;99.90;;;;;;4984747;28;20061;-82
2023/01/09 12:44:29;;;;;;;;;;;12.50;99.90;;;;;;4982181;28;19948;-81
2023/01/09 12:46:55;;;;;;;;;;;12.30;99.90;;;;;;4980780;28;19961;-83
2023/01/09 12:49:34;;;;;;;;;;;12.60;99.90;;;;;;4979514;28;19957;-80
2023/01/09 12:52:00;;;;;;;;;;;12.70;99.90;;;;;;4996361;28;19909;-85
2023/01/09 12:54:44;;;;;;;;;;;12.60;99.90;;;;;;4996807;28;19909;-79
2023/01/09 12:57:25;;;;;;;;;;;12.60;99.90;;;;;;4996276;28;19917;-82
2023/01/09 12:59:56;;;;;;;;;;;12.50;99.90;;;;;;4982220;28;19910;-77
2023/01/09 13:02:29;;;;;;;;;;;12.40;99.90;;;;;;5001667;28;19924;-79
2023/01/09 13:04:58;;;;;;;;;;;12.40;99.90;;;;;;4983881;28;19989;-80
2023/01/09 13:07:50;;;;;;;;;;;12.30;99.90;;;;;;5010967;28;20433;-79
2023/01/09 13:10:25;;;;;;;;;;;12.30;99.90;;;;;;5082022;28;19954;-83
2023/01/09 13:12:51;;;;;;;;;;;13.50;99.90;;;;;;5109053;28;19904;-79
2023/01/09 13:15:17;;;;;;;;;;;12.20;99.90;;;;;;5090559;28;19919;-84
2023/01/09 13:17:46;;;;;;;;;;;12.10;99.90;;;;;;5090858;28;19911;-79
2023/01/09 13:20:24;;;;;;;;;;;12.20;99.90;;;;;;5096382;28;19908;-79
2023/01/09 13:22:51;;;;;;;;;;;10.10;99.90;;;;;;5116895;28;20622;-78
2023/01/09 13:25:35;;;;;;;;;;;12.10;99.90;;;;;;5098313;28;19911;-79
2023/01/09 13:28:04;;;;;;;;;;;12.10;99.90;;;;;;5098347;28;20650;-78
2023/01/09 13:30:49;;;;;;;;;;;12.10;99.90;;;;;;5089603;28;19904;-79
2023/01/09 13:33:23;;;;;;;;;;;12.10;99.90;;;;;;5085686;28;20064;-82
2023/01/09 13:35:52;;;;;;;;;;;12.00;99.90;;;;;;5105559;28;19904;-80
2023/01/09 13:38:20;;;;;;;;;;;11.90;99.90;;;;;;5090879;28;19915;-77
2023/01/09 13:40:46;;;;;;;;;;;11.90;99.90;;;;;;5115036;28;19908;-77
2023/01/09 13:43:13;;;;;;;;;;;11.90;99.90;;;;;;5113988;28;19977;-77
2023/01/09 13:45:39;;;;;;;;;;;11.80;99.90;;;;;;5111568;28;19943;-81
2023/01/09 13:48:08;;;;;;;;;;;11.80;99.90;;;;;;5106034;28;19935;-78
2023/01/09 13:50:35;;;;;;;;;;;11.70;99.90;;;;;;5085961;28;20007;-82
2023/01/09 13:53:36;;;;;;;;;;;11.70;99.90;;;;;;5083861;28;19969;-79
2023/01/09 13:56:03;;;;;;;;;;;11.70;99.90;;;;;;4981390;28;19921;-81
2023/01/09 13:58:49;;;;;;;;;;;11.70;99.90;;;;;;4981539;28;20088;-81
2023/01/09 14:01:38;;;;;;;;;;;11.70;99.90;;;;;;5003370;28;20601;-79
2023/01/09 14:04:22;;;;;;;;;;;11.80;99.90;;;;;;4943761;29;19911;-79
2023/01/09 14:07:06;;;;;;;;;;;11.60;99.90;;;;;;4940705;29;19925;-80
2023/01/09 14:09:36;;;;;;;;;;;11.50;99.90;;;;;;4941683;28;19910;-82
2023/01/09 14:12:03;;;;;;;;;;;11.50;99.90;;;;;;4927413;29;19911;-80
2023/01/09 14:14:32;;;;;;;;;;;11.40;99.90;;;;;;4945535;29;19918;-79
2023/01/09 14:16:58;;;;;;;;;;;11.30;99.90;;;;;;4950925;29;19915;-78
2023/01/09 14:19:29;;;;;;;;;;;11.30;99.90;;;;;;4936519;29;19918;-78
2023/01/09 14:21:55;;;;;;;;;;;11.20;99.90;;;;;;4954811;29;19933;-79
2023/01/09 14:24:29;;;;;;;;;;;11.20;99.90;;;;;;4953188;29;19907;-79
2023/01/09 14:26:58;;;;;;;;;;;11.10;99.90;;;;;;4955876;29;19919;-81
2023/01/09 14:29:30;;;;;;;;;;;11.10;99.90;;;;;;4979643;28;20028;-77
2023/01/09 14:32:14;;;;;;;;;;;11.10;99.90;;;;;;5054687;28;20437;-78
2023/01/09 14:34:40;;;;;;;;;;;11.00;99.90;;;;;;5059295;28;20035;-77
2023/01/09 14:37:10;;;;;;;;;;;10.90;99.90;;;;;;5056604;28;19912;-78
2023/01/09 14:39:38;;;;;;;;;;;10.90;99.90;;;;;;5062628;28;19909;-78
2023/01/09 14:42:14;;;;;;;;;;;10.80;99.90;;;;;;5101172;28;19896;-77
2023/01/09 14:44:59;;;;;;;;;;;10.80;99.90;;;;;;5124628;28;19910;-78